sensor_id;sensor_type;location;lat;lon;timestamp;P1;durP1;ratioP1;P2;durP2;ratioP2
15082;SDS011;7640;53.116;6.878;2023-04-29T00:01:27;65.73;;;41.40;;
15082;SDS011;7640;53.116;6.878;2023-04-29T00:03:56;69.30;;;39.73;;
15082;SDS011;7640;53.116;6.878;2023-04-29T00:06:26;67.03;;;39.33;;
15082;SDS011;7640;53.116;6.878;2023-04-29T00:08:57;57.17;;;38.77;;
15082;SDS011;7640;53.116;6.878;2023-04-29T00:11:26;57.77;;;38.87;;
15082;SDS011;7640;53.116;6.878;2023-04-29T00:13:55;62.33;;;37.70;;
15082;SDS011;7640;53.116;6.878;2023-04-29T00:16:26;58.30;;;37.47;;
15082;SDS011;7640;53.116;6.878;2023-04-29T00:18:56;64.33;;;37.20;;
15082;SDS011;7640;53.116;6.878;2023-04-29T00:21:26;57.57;;;36.57;;
15082;SDS011;7640;53.116;6.878;2023-04-29T00:23:56;59.27;;;36.87;;
15082;SDS011;7640;53.116;6.878;2023-04-29T00:26:26;60.50;;;37.23;;
15082;SDS011;7640;53.116;6.878;2023-04-29T00:28:55;58.17;;;35.90;;
15082;SDS011;7640;53.116;6.878;2023-04-29T00:31:24;58.23;;;35.93;;
15082;SDS011;7640;53.116;6.878;2023-04-29T00:33:55;56.03;;;34.37;;
15082;SDS011;7640;53.116;6.878;2023-04-29T00:36:25;60.63;;;34.20;;
15082;SDS011;7640;53.116;6.878;2023-04-29T00:38:54;57.50;;;32.50;;
15082;SDS011;7640;53.116;6.878;2023-04-29T00:41:23;53.57;;;31.73;;
15082;SDS011;7640;53.116;6.878;2023-04-29T00:43:53;53.00;;;31.83;;
15082;SDS011;7640;53.116;6.878;2023-04-29T00:46:22;54.03;;;30.57;;
15082;SDS011;7640;53.116;6.878;2023-04-29T00:48:53;50.73;;;30.80;;
15082;SDS011;7640;53.116;6.878;2023-04-29T00:51:27;55.03;;;30.60;;
15082;SDS011;7640;53.116;6.878;2023-04-29T00:53:56;55.23;;;30.43;;
15082;SDS011;7640;53.116;6.878;2023-04-29T00:56:25;55.10;;;30.83;;
15082;SDS011;7640;53.116;6.878;2023-04-29T00:58:57;45.97;;;29.23;;
15082;SDS011;7640;53.116;6.878;2023-04-29T01:01:28;48.63;;;28.27;;
15082;SDS011;7640;53.116;6.878;2023-04-29T01:03:58;45.67;;;26.80;;
15082;SDS011;7640;53.116;6.878;2023-04-29T01:06:32;45.50;;;27.53;;
15082;SDS011;7640;53.116;6.878;2023-04-29T01:09:23;44.30;;;27.03;;
15082;SDS011;7640;53.116;6.878;2023-04-29T01:12:10;47.67;;;28.27;;
15082;SDS011;7640;53.116;6.878;2023-04-29T01:14:54;49.33;;;29.57;;
15082;SDS011;7640;53.116;6.878;2023-04-29T01:17:35;48.00;;;30.17;;
15082;SDS011;7640;53.116;6.878;2023-04-29T01:20:09;48.03;;;30.63;;
15082;SDS011;7640;53.116;6.878;2023-04-29T01:22:39;47.87;;;29.07;;
15082;SDS011;7640;53.116;6.878;2023-04-29T01:25:09;48.43;;;28.67;;
15082;SDS011;7640;53.116;6.878;2023-04-29T01:27:39;50.20;;;30.90;;
15082;SDS011;7640;53.116;6.878;2023-04-29T01:30:18;47.37;;;28.20;;
15082;SDS011;7640;53.116;6.878;2023-04-29T01:32:59;43.93;;;25.33;;
15082;SDS011;7640;53.116;6.878;2023-04-29T01:35:39;42.30;;;26.47;;
15082;SDS011;7640;53.116;6.878;2023-04-29T01:38:29;42.33;;;26.33;;
15082;SDS011;7640;53.116;6.878;2023-04-29T01:41:12;48.47;;;26.83;;
15082;SDS011;7640;53.116;6.878;2023-04-29T01:43:45;43.00;;;26.40;;
15082;SDS011;7640;53.116;6.878;2023-04-29T01:46:17;41.30;;;24.47;;
15082;SDS011;7640;53.116;6.878;2023-04-29T01:48:47;43.87;;;23.93;;
15082;SDS011;7640;53.116;6.878;2023-04-29T01:51:18;43.30;;;23.83;;
15082;SDS011;7640;53.116;6.878;2023-04-29T01:53:47;39.47;;;24.20;;
15082;SDS011;7640;53.116;6.878;2023-04-29T01:56:17;40.37;;;24.77;;
15082;SDS011;7640;53.116;6.878;2023-04-29T01:58:47;40.87;;;24.47;;
15082;SDS011;7640;53.116;6.878;2023-04-29T02:01:16;40.00;;;24.97;;
15082;SDS011;7640;53.116;6.878;2023-04-29T02:03:45;41.97;;;25.33;;
15082;SDS011;7640;53.116;6.878;2023-04-29T02:06:14;40.53;;;25.33;;
15082;SDS011;7640;53.116;6.878;2023-04-29T02:08:45;43.27;;;25.13;;
15082;SDS011;7640;53.116;6.878;2023-04-29T02:11:15;44.50;;;24.73;;
15082;SDS011;7640;53.116;6.878;2023-04-29T02:13:45;44.03;;;25.60;;
15082;SDS011;7640;53.116;6.878;2023-04-29T02:16:15;44.47;;;25.70;;
15082;SDS011;7640;53.116;6.878;2023-04-29T02:18:45;48.27;;;25.47;;
15082;SDS011;7640;53.116;6.878;2023-04-29T02:21:14;43.20;;;24.17;;
15082;SDS011;7640;53.116;6.878;2023-04-29T02:23:45;43.03;;;24.50;;
15082;SDS011;7640;53.116;6.878;2023-04-29T02:26:17;47.17;;;23.60;;
15082;SDS011;7640;53.116;6.878;2023-04-29T02:28:48;38.13;;;23.30;;
15082;SDS011;7640;53.116;6.878;2023-04-29T02:31:17;41.83;;;23.97;;
15082;SDS011;7640;53.116;6.878;2023-04-29T02:33:47;39.63;;;23.37;;
15082;SDS011;7640;53.116;6.878;2023-04-29T02:36:16;39.90;;;23.23;;
15082;SDS011;7640;53.116;6.878;2023-04-29T02:38:46;36.73;;;22.40;;
15082;SDS011;7640;53.116;6.878;2023-04-29T02:41:16;36.80;;;21.83;;
15082;SDS011;7640;53.116;6.878;2023-04-29T02:43:45;39.87;;;23.20;;
15082;SDS011;7640;53.116;6.878;2023-04-29T02:46:16;39.07;;;21.73;;
15082;SDS011;7640;53.116;6.878;2023-04-29T02:48:45;37.53;;;23.47;;
15082;SDS011;7640;53.116;6.878;2023-04-29T02:51:14;39.37;;;24.00;;
15082;SDS011;7640;53.116;6.878;2023-04-29T02:53:42;47.50;;;24.33;;
15082;SDS011;7640;53.116;6.878;2023-04-29T02:56:12;39.93;;;24.77;;
15082;SDS011;7640;53.116;6.878;2023-04-29T02:58:45;47.57;;;25.77;;
15082;SDS011;7640;53.116;6.878;2023-04-29T03:01:15;44.37;;;25.90;;
15082;SDS011;7640;53.116;6.878;2023-04-29T03:03:44;42.37;;;25.00;;
15082;SDS011;7640;53.116;6.878;2023-04-29T03:06:15;42.67;;;24.67;;
15082;SDS011;7640;53.116;6.878;2023-04-29T03:08:45;43.93;;;25.13;;
15082;SDS011;7640;53.116;6.878;2023-04-29T03:11:13;41.60;;;23.33;;
15082;SDS011;7640;53.116;6.878;2023-04-29T03:13:42;39.43;;;23.30;;
15082;SDS011;7640;53.116;6.878;2023-04-29T03:16:14;38.63;;;23.27;;
15082;SDS011;7640;53.116;6.878;2023-04-29T03:18:44;43.87;;;25.03;;
15082;SDS011;7640;53.116;6.878;2023-04-29T03:21:13;39.57;;;23.43;;
15082;SDS011;7640;53.116;6.878;2023-04-29T03:23:42;43.10;;;23.57;;
15082;SDS011;7640;53.116;6.878;2023-04-29T03:26:10;42.53;;;25.60;;
15082;SDS011;7640;53.116;6.878;2023-04-29T03:28:39;41.93;;;25.60;;
15082;SDS011;7640;53.116;6.878;2023-04-29T03:31:08;47.70;;;23.90;;
15082;SDS011;7640;53.116;6.878;2023-04-29T03:33:39;42.93;;;24.73;;
15082;SDS011;7640;53.116;6.878;2023-04-29T03:36:07;42.30;;;25.00;;
15082;SDS011;7640;53.116;6.878;2023-04-29T03:38:36;41.20;;;24.23;;
15082;SDS011;7640;53.116;6.878;2023-04-29T03:41:05;38.37;;;23.27;;
15082;SDS011;7640;53.116;6.878;2023-04-29T03:43:34;41.43;;;24.43;;
15082;SDS011;7640;53.116;6.878;2023-04-29T03:46:03;39.93;;;22.97;;
15082;SDS011;7640;53.116;6.878;2023-04-29T03:48:33;39.83;;;22.40;;
15082;SDS011;7640;53.116;6.878;2023-04-29T03:51:03;38.60;;;22.13;;
15082;SDS011;7640;53.116;6.878;2023-04-29T03:53:32;36.77;;;22.67;;
15082;SDS011;7640;53.116;6.878;2023-04-29T03:56:03;39.43;;;22.80;;
15082;SDS011;7640;53.116;6.878;2023-04-29T03:58:32;34.50;;;20.90;;
15082;SDS011;7640;53.116;6.878;2023-04-29T04:01:01;35.37;;;22.37;;
15082;SDS011;7640;53.116;6.878;2023-04-29T04:03:29;40.07;;;21.67;;
15082;SDS011;7640;53.116;6.878;2023-04-29T04:05:59;37.47;;;21.03;;
15082;SDS011;7640;53.116;6.878;2023-04-29T04:08:29;38.33;;;22.50;;
15082;SDS011;7640;53.116;6.878;2023-04-29T04:10:58;37.83;;;23.27;;
15082;SDS011;7640;53.116;6.878;2023-04-29T04:13:30;36.10;;;22.93;;
15082;SDS011;7640;53.116;6.878;2023-04-29T04:15:58;38.93;;;21.93;;
15082;SDS011;7640;53.116;6.878;2023-04-29T04:18:27;35.80;;;22.87;;
15082;SDS011;7640;53.116;6.878;2023-04-29T04:20:56;37.00;;;21.97;;
15082;SDS011;7640;53.116;6.878;2023-04-29T04:23:25;40.17;;;23.20;;
15082;SDS011;7640;53.116;6.878;2023-04-29T04:25:55;44.63;;;23.10;;
15082;SDS011;7640;53.116;6.878;2023-04-29T04:28:23;35.70;;;21.90;;
15082;SDS011;7640;53.116;6.878;2023-04-29T04:30:52;37.53;;;22.40;;
15082;SDS011;7640;53.116;6.878;2023-04-29T04:33:22;34.47;;;21.80;;
15082;SDS011;7640;53.116;6.878;2023-04-29T04:35:51;42.17;;;22.30;;
15082;SDS011;7640;53.116;6.878;2023-04-29T04:38:22;33.73;;;20.87;;
15082;SDS011;7640;53.116;6.878;2023-04-29T04:40:54;40.87;;;21.93;;
15082;SDS011;7640;53.116;6.878;2023-04-29T04:43:23;32.77;;;20.63;;
15082;SDS011;7640;53.116;6.878;2023-04-29T04:45:52;36.70;;;20.93;;
15082;SDS011;7640;53.116;6.878;2023-04-29T04:48:25;37.00;;;20.33;;
15082;SDS011;7640;53.116;6.878;2023-04-29T04:50:53;37.23;;;20.07;;
15082;SDS011;7640;53.116;6.878;2023-04-29T04:53:22;33.27;;;19.77;;
15082;SDS011;7640;53.116;6.878;2023-04-29T04:55:51;32.23;;;19.27;;
15082;SDS011;7640;53.116;6.878;2023-04-29T04:58:21;30.80;;;18.37;;
15082;SDS011;7640;53.116;6.878;2023-04-29T05:00:51;37.00;;;19.03;;
15082;SDS011;7640;53.116;6.878;2023-04-29T05:03:20;35.53;;;19.40;;
15082;SDS011;7640;53.116;6.878;2023-04-29T05:05:53;34.03;;;18.07;;
15082;SDS011;7640;53.116;6.878;2023-04-29T05:08:22;29.47;;;18.63;;
15082;SDS011;7640;53.116;6.878;2023-04-29T05:10:52;30.63;;;17.07;;
15082;SDS011;7640;53.116;6.878;2023-04-29T05:13:23;29.70;;;17.30;;
15082;SDS011;7640;53.116;6.878;2023-04-29T05:15:52;31.07;;;17.90;;
15082;SDS011;7640;53.116;6.878;2023-04-29T05:18:21;28.97;;;17.77;;
15082;SDS011;7640;53.116;6.878;2023-04-29T05:20:50;31.87;;;17.93;;
15082;SDS011;7640;53.116;6.878;2023-04-29T05:23:19;34.67;;;18.30;;
15082;SDS011;7640;53.116;6.878;2023-04-29T05:25:48;31.70;;;18.93;;
15082;SDS011;7640;53.116;6.878;2023-04-29T05:28:17;33.37;;;18.27;;
15082;SDS011;7640;53.116;6.878;2023-04-29T05:30:49;33.43;;;19.80;;
15082;SDS011;7640;53.116;6.878;2023-04-29T05:33:18;31.13;;;18.77;;
15082;SDS011;7640;53.116;6.878;2023-04-29T05:35:47;34.10;;;20.53;;
15082;SDS011;7640;53.116;6.878;2023-04-29T05:38:16;33.70;;;20.53;;
15082;SDS011;7640;53.116;6.878;2023-04-29T05:40:45;32.27;;;20.47;;
15082;SDS011;7640;53.116;6.878;2023-04-29T05:43:15;35.40;;;21.47;;
15082;SDS011;7640;53.116;6.878;2023-04-29T05:45:45;37.87;;;21.80;;
15082;SDS011;7640;53.116;6.878;2023-04-29T05:48:16;37.63;;;21.43;;
15082;SDS011;7640;53.116;6.878;2023-04-29T05:50:45;33.37;;;20.63;;
15082;SDS011;7640;53.116;6.878;2023-04-29T05:53:14;32.33;;;19.70;;
15082;SDS011;7640;53.116;6.878;2023-04-29T05:55:42;29.57;;;19.67;;
15082;SDS011;7640;53.116;6.878;2023-04-29T05:58:13;35.13;;;20.00;;
15082;SDS011;7640;53.116;6.878;2023-04-29T06:00:42;32.83;;;20.63;;
15082;SDS011;7640;53.116;6.878;2023-04-29T06:03:12;34.50;;;20.43;;
15082;SDS011;7640;53.116;6.878;2023-04-29T06:05:42;33.23;;;19.23;;
15082;SDS011;7640;53.116;6.878;2023-04-29T06:08:13;30.17;;;19.27;;
15082;SDS011;7640;53.116;6.878;2023-04-29T06:10:42;28.03;;;18.13;;
15082;SDS011;7640;53.116;6.878;2023-04-29T06:13:11;29.60;;;18.40;;
15082;SDS011;7640;53.116;6.878;2023-04-29T06:15:41;29.67;;;17.47;;
15082;SDS011;7640;53.116;6.878;2023-04-29T06:18:13;31.77;;;18.03;;
15082;SDS011;7640;53.116;6.878;2023-04-29T06:20:42;24.60;;;16.60;;
15082;SDS011;7640;53.116;6.878;2023-04-29T06:23:11;27.17;;;15.93;;
15082;SDS011;7640;53.116;6.878;2023-04-29T06:25:39;23.43;;;15.33;;
15082;SDS011;7640;53.116;6.878;2023-04-29T06:28:08;26.27;;;16.10;;
15082;SDS011;7640;53.116;6.878;2023-04-29T06:30:36;24.40;;;15.37;;
15082;SDS011;7640;53.116;6.878;2023-04-29T06:33:05;22.87;;;15.13;;
15082;SDS011;7640;53.116;6.878;2023-04-29T06:35:39;20.93;;;15.03;;
15082;SDS011;7640;53.116;6.878;2023-04-29T06:38:08;21.43;;;13.70;;
15082;SDS011;7640;53.116;6.878;2023-04-29T06:40:36;21.17;;;13.37;;
15082;SDS011;7640;53.116;6.878;2023-04-29T06:43:05;20.57;;;13.53;;
15082;SDS011;7640;53.116;6.878;2023-04-29T06:45:34;20.10;;;14.13;;
15082;SDS011;7640;53.116;6.878;2023-04-29T06:48:02;19.77;;;13.27;;
15082;SDS011;7640;53.116;6.878;2023-04-29T06:50:31;22.90;;;13.77;;
15082;SDS011;7640;53.116;6.878;2023-04-29T06:53:01;17.80;;;12.90;;
15082;SDS011;7640;53.116;6.878;2023-04-29T06:55:30;19.40;;;12.87;;
15082;SDS011;7640;53.116;6.878;2023-04-29T06:57:59;17.30;;;12.50;;
15082;SDS011;7640;53.116;6.878;2023-04-29T07:00:29;14.50;;;11.03;;
15082;SDS011;7640;53.116;6.878;2023-04-29T07:02:57;16.67;;;12.97;;
15082;SDS011;7640;53.116;6.878;2023-04-29T07:05:26;17.70;;;11.77;;
15082;SDS011;7640;53.116;6.878;2023-04-29T07:07:54;18.37;;;11.30;;
15082;SDS011;7640;53.116;6.878;2023-04-29T07:10:25;15.90;;;11.17;;
15082;SDS011;7640;53.116;6.878;2023-04-29T07:12:53;20.47;;;11.10;;
15082;SDS011;7640;53.116;6.878;2023-04-29T07:15:23;15.33;;;10.70;;
15082;SDS011;7640;53.116;6.878;2023-04-29T07:17:52;17.17;;;11.07;;
15082;SDS011;7640;53.116;6.878;2023-04-29T07:20:21;17.00;;;10.60;;
15082;SDS011;7640;53.116;6.878;2023-04-29T07:22:51;16.07;;;11.10;;
15082;SDS011;7640;53.116;6.878;2023-04-29T07:25:20;17.50;;;10.33;;
15082;SDS011;7640;53.116;6.878;2023-04-29T07:27:50;13.13;;;9.53;;
15082;SDS011;7640;53.116;6.878;2023-04-29T07:30:18;16.77;;;10.73;;
15082;SDS011;7640;53.116;6.878;2023-04-29T07:32:47;12.63;;;9.40;;
15082;SDS011;7640;53.116;6.878;2023-04-29T07:35:16;13.47;;;9.13;;
15082;SDS011;7640;53.116;6.878;2023-04-29T07:37:45;12.23;;;9.20;;
15082;SDS011;7640;53.116;6.878;2023-04-29T07:40:14;10.70;;;8.80;;
15082;SDS011;7640;53.116;6.878;2023-04-29T07:42:43;14.73;;;9.83;;
15082;SDS011;7640;53.116;6.878;2023-04-29T07:45:13;14.43;;;9.53;;
15082;SDS011;7640;53.116;6.878;2023-04-29T07:47:41;12.50;;;8.83;;
15082;SDS011;7640;53.116;6.878;2023-04-29T07:50:11;11.97;;;9.13;;
15082;SDS011;7640;53.116;6.878;2023-04-29T07:52:40;12.10;;;8.80;;
15082;SDS011;7640;53.116;6.878;2023-04-29T07:55:08;12.67;;;8.80;;
15082;SDS011;7640;53.116;6.878;2023-04-29T07:57:38;12.30;;;8.17;;
15082;SDS011;7640;53.116;6.878;2023-04-29T08:00:07;10.27;;;8.33;;
15082;SDS011;7640;53.116;6.878;2023-04-29T08:02:39;12.37;;;8.93;;
15082;SDS011;7640;53.116;6.878;2023-04-29T08:05:09;12.13;;;7.80;;
15082;SDS011;7640;53.116;6.878;2023-04-29T08:07:42;9.33;;;7.20;;
15082;SDS011;7640;53.116;6.878;2023-04-29T08:10:10;11.67;;;8.33;;
15082;SDS011;7640;53.116;6.878;2023-04-29T08:12:39;14.20;;;8.57;;
15082;SDS011;7640;53.116;6.878;2023-04-29T08:15:08;12.00;;;8.13;;
15082;SDS011;7640;53.116;6.878;2023-04-29T08:17:38;10.13;;;7.93;;
15082;SDS011;7640;53.116;6.878;2023-04-29T08:20:07;13.10;;;8.67;;
15082;SDS011;7640;53.116;6.878;2023-04-29T08:22:37;12.97;;;8.20;;
15082;SDS011;7640;53.116;6.878;2023-04-29T08:25:06;12.33;;;7.97;;
15082;SDS011;7640;53.116;6.878;2023-04-29T08:27:35;15.43;;;8.50;;
15082;SDS011;7640;53.116;6.878;2023-04-29T08:30:05;12.07;;;8.37;;
15082;SDS011;7640;53.116;6.878;2023-04-29T08:32:35;13.23;;;8.40;;
15082;SDS011;7640;53.116;6.878;2023-04-29T08:35:05;9.90;;;7.57;;
15082;SDS011;7640;53.116;6.878;2023-04-29T08:37:35;10.50;;;7.60;;
15082;SDS011;7640;53.116;6.878;2023-04-29T08:40:04;10.93;;;7.97;;
15082;SDS011;7640;53.116;6.878;2023-04-29T08:42:35;14.23;;;8.20;;
15082;SDS011;7640;53.116;6.878;2023-04-29T08:45:04;11.43;;;7.70;;
15082;SDS011;7640;53.116;6.878;2023-04-29T08:47:34;10.27;;;7.33;;
15082;SDS011;7640;53.116;6.878;2023-04-29T08:50:06;12.80;;;8.60;;
15082;SDS011;7640;53.116;6.878;2023-04-29T08:52:36;8.37;;;7.47;;
15082;SDS011;7640;53.116;6.878;2023-04-29T08:55:05;11.80;;;8.00;;
15082;SDS011;7640;53.116;6.878;2023-04-29T08:57:35;11.13;;;7.33;;
15082;SDS011;7640;53.116;6.878;2023-04-29T09:00:06;9.37;;;7.97;;
15082;SDS011;7640;53.116;6.878;2023-04-29T09:02:40;10.10;;;7.70;;
15082;SDS011;7640;53.116;6.878;2023-04-29T09:05:14;11.63;;;7.97;;
15082;SDS011;7640;53.116;6.878;2023-04-29T09:07:43;10.27;;;7.93;;
15082;SDS011;7640;53.116;6.878;2023-04-29T09:10:20;10.43;;;8.00;;
15082;SDS011;7640;53.116;6.878;2023-04-29T09:12:50;11.43;;;8.27;;
15082;SDS011;7640;53.116;6.878;2023-04-29T09:15:23;10.27;;;8.23;;
15082;SDS011;7640;53.116;6.878;2023-04-29T09:17:52;12.40;;;8.90;;
15082;SDS011;7640;53.116;6.878;2023-04-29T09:20:27;12.43;;;8.57;;
15082;SDS011;7640;53.116;6.878;2023-04-29T09:22:57;10.83;;;8.97;;
15082;SDS011;7640;53.116;6.878;2023-04-29T09:25:29;11.03;;;8.57;;
15082;SDS011;7640;53.116;6.878;2023-04-29T09:27:58;13.17;;;8.70;;
15082;SDS011;7640;53.116;6.878;2023-04-29T09:30:45;11.63;;;8.43;;
15082;SDS011;7640;53.116;6.878;2023-04-29T09:33:13;12.80;;;8.70;;
15082;SDS011;7640;53.116;6.878;2023-04-29T09:35:44;11.63;;;8.67;;
15082;SDS011;7640;53.116;6.878;2023-04-29T09:38:14;10.23;;;8.10;;
15082;SDS011;7640;53.116;6.878;2023-04-29T09:40:53;11.20;;;8.07;;
15082;SDS011;7640;53.116;6.878;2023-04-29T09:43:27;9.50;;;8.00;;
15082;SDS011;7640;53.116;6.878;2023-04-29T09:45:55;10.33;;;7.37;;
15082;SDS011;7640;53.116;6.878;2023-04-29T09:48:29;10.60;;;7.50;;
15082;SDS011;7640;53.116;6.878;2023-04-29T09:51:02;11.57;;;6.47;;
15082;SDS011;7640;53.116;6.878;2023-04-29T09:53:34;11.40;;;6.80;;
15082;SDS011;7640;53.116;6.878;2023-04-29T09:56:07;8.00;;;6.30;;
15082;SDS011;7640;53.116;6.878;2023-04-29T09:58:37;7.23;;;6.33;;
15082;SDS011;7640;53.116;6.878;2023-04-29T10:01:05;9.30;;;5.93;;
15082;SDS011;7640;53.116;6.878;2023-04-29T10:03:35;9.33;;;6.43;;
15082;SDS011;7640;53.116;6.878;2023-04-29T10:06:06;6.53;;;5.63;;
15082;SDS011;7640;53.116;6.878;2023-04-29T10:08:35;8.97;;;5.90;;
15082;SDS011;7640;53.116;6.878;2023-04-29T10:11:04;9.00;;;6.63;;
15082;SDS011;7640;53.116;6.878;2023-04-29T10:13:33;8.07;;;6.07;;
15082;SDS011;7640;53.116;6.878;2023-04-29T10:16:07;9.07;;;6.63;;
15082;SDS011;7640;53.116;6.878;2023-04-29T10:18:48;9.43;;;6.50;;
15082;SDS011;7640;53.116;6.878;2023-04-29T10:21:24;8.03;;;6.30;;
15082;SDS011;7640;53.116;6.878;2023-04-29T10:23:57;9.00;;;6.40;;
15082;SDS011;7640;53.116;6.878;2023-04-29T10:26:27;9.87;;;6.37;;
15082;SDS011;7640;53.116;6.878;2023-04-29T10:28:58;8.57;;;6.73;;
15082;SDS011;7640;53.116;6.878;2023-04-29T10:31:27;8.40;;;6.60;;
15082;SDS011;7640;53.116;6.878;2023-04-29T10:33:57;8.40;;;6.07;;
15082;SDS011;7640;53.116;6.878;2023-04-29T10:36:28;9.70;;;6.63;;
15082;SDS011;7640;53.116;6.878;2023-04-29T10:38:58;7.50;;;6.00;;
15082;SDS011;7640;53.116;6.878;2023-04-29T10:41:32;9.17;;;6.23;;
15082;SDS011;7640;53.116;6.878;2023-04-29T10:44:04;10.93;;;5.97;;
15082;SDS011;7640;53.116;6.878;2023-04-29T10:46:33;8.50;;;5.97;;
15082;SDS011;7640;53.116;6.878;2023-04-29T10:49:03;8.43;;;6.13;;
15082;SDS011;7640;53.116;6.878;2023-04-29T10:51:34;9.87;;;6.37;;
15082;SDS011;7640;53.116;6.878;2023-04-29T10:54:09;10.17;;;6.40;;
15082;SDS011;7640;53.116;6.878;2023-04-29T10:56:41;10.37;;;6.10;;
15082;SDS011;7640;53.116;6.878;2023-04-29T10:59:12;8.53;;;5.87;;
15082;SDS011;7640;53.116;6.878;2023-04-29T11:01:42;8.37;;;5.80;;
15082;SDS011;7640;53.116;6.878;2023-04-29T11:04:17;8.70;;;6.13;;
15082;SDS011;7640;53.116;6.878;2023-04-29T11:06:53;7.87;;;6.17;;
15082;SDS011;7640;53.116;6.878;2023-04-29T11:09:28;5.90;;;5.23;;
15082;SDS011;7640;53.116;6.878;2023-04-29T11:12:00;8.40;;;5.50;;
15082;SDS011;7640;53.116;6.878;2023-04-29T11:14:32;5.90;;;5.30;;
15082;SDS011;7640;53.116;6.878;2023-04-29T11:17:04;9.93;;;5.57;;
15082;SDS011;7640;53.116;6.878;2023-04-29T11:19:39;7.70;;;5.73;;
15082;SDS011;7640;53.116;6.878;2023-04-29T11:22:12;10.10;;;5.93;;
15082;SDS011;7640;53.116;6.878;2023-04-29T11:24:53;7.20;;;5.63;;
15082;SDS011;7640;53.116;6.878;2023-04-29T11:27:27;9.17;;;5.83;;
15082;SDS011;7640;53.116;6.878;2023-04-29T11:29:58;7.67;;;5.50;;
15082;SDS011;7640;53.116;6.878;2023-04-29T11:32:30;6.83;;;5.20;;
15082;SDS011;7640;53.116;6.878;2023-04-29T11:35:07;6.73;;;4.80;;
15082;SDS011;7640;53.116;6.878;2023-04-29T11:37:42;7.37;;;4.03;;
15082;SDS011;7640;53.116;6.878;2023-04-29T11:40:13;3.90;;;3.37;;
15082;SDS011;7640;53.116;6.878;2023-04-29T11:42:44;6.33;;;3.73;;
15082;SDS011;7640;53.116;6.878;2023-04-29T11:45:22;4.37;;;3.30;;
15082;SDS011;7640;53.116;6.878;2023-04-29T11:47:52;4.00;;;3.17;;
15082;SDS011;7640;53.116;6.878;2023-04-29T11:50:22;3.73;;;3.07;;
15082;SDS011;7640;53.116;6.878;2023-04-29T11:52:53;3.13;;;2.83;;
15082;SDS011;7640;53.116;6.878;2023-04-29T11:55:25;5.00;;;2.70;;
15082;SDS011;7640;53.116;6.878;2023-04-29T11:57:53;3.20;;;2.67;;
15082;SDS011;7640;53.116;6.878;2023-04-29T12:00:22;3.23;;;2.80;;
15082;SDS011;7640;53.116;6.878;2023-04-29T12:02:52;3.30;;;2.73;;
15082;SDS011;7640;53.116;6.878;2023-04-29T12:05:22;5.70;;;2.87;;
15082;SDS011;7640;53.116;6.878;2023-04-29T12:07:58;5.70;;;2.80;;
15082;SDS011;7640;53.116;6.878;2023-04-29T12:10:27;3.73;;;3.17;;
15082;SDS011;7640;53.116;6.878;2023-04-29T12:12:55;3.97;;;2.57;;
15082;SDS011;7640;53.116;6.878;2023-04-29T12:15:25;4.23;;;2.70;;
15082;SDS011;7640;53.116;6.878;2023-04-29T12:17:56;3.80;;;3.35;;
15082;SDS011;7640;53.116;6.878;2023-04-29T12:20:25;5.87;;;2.83;;
15082;SDS011;7640;53.116;6.878;2023-04-29T12:22:55;3.35;;;2.40;;
15082;SDS011;7640;53.116;6.878;2023-04-29T12:25:26;4.85;;;2.63;;
15082;SDS011;7640;53.116;6.878;2023-04-29T12:27:57;3.03;;;2.60;;
15082;SDS011;7640;53.116;6.878;2023-04-29T12:30:32;6.32;;;3.25;;
15082;SDS011;7640;53.116;6.878;2023-04-29T12:33:03;3.28;;;2.60;;
15082;SDS011;7640;53.116;6.878;2023-04-29T12:35:35;5.63;;;2.83;;
15082;SDS011;7640;53.116;6.878;2023-04-29T12:38:05;5.10;;;3.42;;
15082;SDS011;7640;53.116;6.878;2023-04-29T12:40:36;5.80;;;3.42;;
15082;SDS011;7640;53.116;6.878;2023-04-29T12:43:07;3.88;;;3.03;;
15082;SDS011;7640;53.116;6.878;2023-04-29T12:45:37;4.45;;;3.40;;
15082;SDS011;7640;53.116;6.878;2023-04-29T12:48:06;6.78;;;3.42;;
15082;SDS011;7640;53.116;6.878;2023-04-29T12:50:50;4.03;;;3.60;;
15082;SDS011;7640;53.116;6.878;2023-04-29T12:53:19;4.90;;;3.83;;
15082;SDS011;7640;53.116;6.878;2023-04-29T12:55:49;4.63;;;3.97;;
15082;SDS011;7640;53.116;6.878;2023-04-29T12:58:18;5.90;;;4.13;;
15082;SDS011;7640;53.116;6.878;2023-04-29T13:00:48;7.55;;;4.13;;
15082;SDS011;7640;53.116;6.878;2023-04-29T13:03:25;5.35;;;3.42;;
15082;SDS011;7640;53.116;6.878;2023-04-29T13:05:54;4.35;;;3.53;;
15082;SDS011;7640;53.116;6.878;2023-04-29T13:08:25;3.85;;;2.80;;
15082;SDS011;7640;53.116;6.878;2023-04-29T13:10:55;3.72;;;2.25;;
15082;SDS011;7640;53.116;6.878;2023-04-29T13:13:24;2.47;;;2.25;;
15082;SDS011;7640;53.116;6.878;2023-04-29T13:15:53;2.65;;;1.95;;
15082;SDS011;7640;53.116;6.878;2023-04-29T13:18:22;1.95;;;1.75;;
15082;SDS011;7640;53.116;6.878;2023-04-29T13:20:51;2.47;;;2.13;;
15082;SDS011;7640;53.116;6.878;2023-04-29T13:23:21;3.00;;;2.47;;
15082;SDS011;7640;53.116;6.878;2023-04-29T13:25:52;3.42;;;2.47;;
15082;SDS011;7640;53.116;6.878;2023-04-29T13:28:23;4.18;;;2.15;;
15082;SDS011;7640;53.116;6.878;2023-04-29T13:30:53;4.40;;;2.50;;
15082;SDS011;7640;53.116;6.878;2023-04-29T13:33:22;3.30;;;2.45;;
15082;SDS011;7640;53.116;6.878;2023-04-29T13:35:50;2.05;;;1.80;;
15082;SDS011;7640;53.116;6.878;2023-04-29T13:38:20;3.35;;;2.25;;
15082;SDS011;7640;53.116;6.878;2023-04-29T13:40:48;3.55;;;2.28;;
15082;SDS011;7640;53.116;6.878;2023-04-29T13:43:21;2.92;;;2.30;;
15082;SDS011;7640;53.116;6.878;2023-04-29T13:46:03;2.53;;;2.33;;
15082;SDS011;7640;53.116;6.878;2023-04-29T13:48:33;3.28;;;2.65;;
15082;SDS011;7640;53.116;6.878;2023-04-29T13:51:22;2.67;;;2.47;;
15082;SDS011;7640;53.116;6.878;2023-04-29T13:54:11;3.67;;;3.20;;
15082;SDS011;7640;53.116;6.878;2023-04-29T13:56:43;4.28;;;3.88;;
15082;SDS011;7640;53.116;6.878;2023-04-29T13:59:18;3.65;;;3.35;;
15082;SDS011;7640;53.116;6.878;2023-04-29T14:01:51;6.47;;;4.05;;
15082;SDS011;7640;53.116;6.878;2023-04-29T14:04:40;4.50;;;3.88;;
15082;SDS011;7640;53.116;6.878;2023-04-29T14:07:09;5.60;;;4.00;;
15082;SDS011;7640;53.116;6.878;2023-04-29T14:09:38;5.53;;;4.47;;
15082;SDS011;7640;53.116;6.878;2023-04-29T14:12:06;5.07;;;4.30;;
15082;SDS011;7640;53.116;6.878;2023-04-29T14:14:37;5.85;;;5.30;;
15082;SDS011;7640;53.116;6.878;2023-04-29T14:17:06;6.80;;;5.75;;
15082;SDS011;7640;53.116;6.878;2023-04-29T14:19:35;6.72;;;6.13;;
15082;SDS011;7640;53.116;6.878;2023-04-29T14:22:04;7.28;;;6.20;;
15082;SDS011;7640;53.116;6.878;2023-04-29T14:24:32;7.13;;;5.60;;
15082;SDS011;7640;53.116;6.878;2023-04-29T14:27:01;7.28;;;5.63;;
15082;SDS011;7640;53.116;6.878;2023-04-29T14:29:30;5.82;;;5.22;;
15082;SDS011;7640;53.116;6.878;2023-04-29T14:32:00;6.82;;;5.60;;
15082;SDS011;7640;53.116;6.878;2023-04-29T14:34:29;6.82;;;5.45;;
15082;SDS011;7640;53.116;6.878;2023-04-29T14:36:59;5.95;;;5.10;;
15082;SDS011;7640;53.116;6.878;2023-04-29T14:39:28;6.90;;;5.80;;
15082;SDS011;7640;53.116;6.878;2023-04-29T14:41:57;6.75;;;5.22;;
15082;SDS011;7640;53.116;6.878;2023-04-29T14:44:29;6.63;;;5.93;;
15082;SDS011;7640;53.116;6.878;2023-04-29T14:46:57;6.95;;;5.75;;
15082;SDS011;7640;53.116;6.878;2023-04-29T14:49:34;6.72;;;5.90;;
15082;SDS011;7640;53.116;6.878;2023-04-29T14:52:07;8.05;;;5.88;;
15082;SDS011;7640;53.116;6.878;2023-04-29T14:54:36;7.45;;;6.03;;
15082;SDS011;7640;53.116;6.878;2023-04-29T14:57:04;6.00;;;5.38;;
15082;SDS011;7640;53.116;6.878;2023-04-29T14:59:34;6.30;;;5.70;;
15082;SDS011;7640;53.116;6.878;2023-04-29T15:02:03;7.45;;;5.40;;
15082;SDS011;7640;53.116;6.878;2023-04-29T15:04:32;6.20;;;5.38;;
15082;SDS011;7640;53.116;6.878;2023-04-29T15:07:00;6.93;;;5.18;;